createdAt,value
2023-05-08T00:01:11.054Z,59.80
2023-05-08T00:03:41.754Z,60.30
2023-05-08T00:06:12.106Z,60.10
2023-05-08T00:08:43.894Z,60.10
2023-05-08T00:11:14.146Z,60.10
2023-05-08T00:13:44.437Z,60.10
2023-05-08T00:16:14.730Z,60.10
2023-05-08T00:18:45.828Z,59.90
2023-05-08T00:21:16.122Z,59.90
2023-05-08T00:23:46.407Z,59.90
2023-05-08T00:26:16.724Z,59.80
2023-05-08T00:28:47.024Z,59.90
2023-05-08T00:31:17.373Z,59.70
2023-05-08T00:33:47.606Z,59.60
2023-05-08T00:36:17.882Z,59.70
2023-05-08T00:38:48.272Z,59.60
2023-05-08T00:41:18.538Z,59.60
2023-05-08T00:43:48.834Z,59.50
2023-05-08T00:46:19.613Z,59.50
2023-05-08T00:48:50.508Z,59.60
2023-05-08T00:51:21.165Z,59.50
2023-05-08T00:53:51.772Z,59.50
2023-05-08T00:56:24.752Z,59.60
2023-05-08T00:58:56.520Z,59.50
2023-05-08T01:01:27.904Z,59.70
2023-05-08T01:03:58.374Z,59.60
2023-05-08T01:06:28.603Z,59.80
2023-05-08T01:08:58.951Z,59.70
2023-05-08T01:11:38.245Z,59.80
2023-05-08T01:14:17.357Z,59.90
2023-05-08T01:16:53.105Z,59.80
2023-05-08T01:19:35.564Z,59.70
2023-05-08T01:22:11.732Z,59.70
2023-05-08T01:25:18.723Z,59.70
2023-05-08T01:28:07.181Z,59.60
2023-05-08T01:31:02.445Z,59.80
2023-05-08T01:33:47.726Z,59.00
2023-05-08T01:36:51.275Z,57.10
2023-05-08T01:39:23.642Z,55.30
2023-05-08T01:42:13.509Z,55.30
2023-05-08T01:44:49.783Z,54.70
2023-05-08T01:47:23.111Z,56.10
2023-05-08T01:50:19.184Z,54.40
2023-05-08T01:52:54.362Z,54.10
2023-05-08T01:55:29.473Z,52.80
2023-05-08T01:58:01.989Z,52.50
2023-05-08T02:00:32.983Z,52.30
2023-05-08T02:03:04.204Z,52.10
2023-05-08T02:05:35.490Z,52.50
2023-05-08T02:08:07.267Z,52.20
2023-05-08T02:10:39.283Z,52.50
2023-05-08T02:13:12.949Z,51.40
2023-05-08T02:15:45.299Z,50.70
2023-05-08T02:18:18.135Z,50.20
2023-05-08T02:20:50.176Z,51.40
2023-05-08T02:23:22.790Z,50.90
2023-05-08T02:25:54.880Z,49.90
2023-05-08T02:28:27.316Z,49.60
2023-05-08T02:30:59.000Z,49.40
2023-05-08T02:33:32.052Z,49.60
2023-05-08T02:36:08.369Z,50.10
2023-05-08T02:38:42.246Z,49.60
2023-05-08T02:41:14.315Z,49.70
2023-05-08T02:43:45.563Z,48.50
2023-05-08T02:46:44.302Z,48.60
2023-05-08T02:49:46.548Z,47.20
2023-05-08T02:52:27.293Z,48.00
2023-05-08T02:55:34.015Z,48.70
2023-05-08T02:58:16.824Z,50.10
2023-05-08T03:01:01.296Z,49.10
2023-05-08T03:03:59.515Z,49.30
2023-05-08T03:06:32.474Z,51.70
2023-05-08T03:09:05.935Z,52.40
2023-05-08T03:11:44.704Z,52.90
2023-05-08T03:14:18.242Z,53.20
2023-05-08T03:16:50.071Z,53.40
2023-05-08T03:19:32.827Z,53.60
2023-05-08T03:22:05.404Z,53.60
2023-05-08T03:24:39.074Z,53.90
2023-05-08T03:27:11.703Z,54.10
2023-05-08T03:29:43.592Z,54.10
2023-05-08T03:32:16.921Z,54.30
2023-05-08T03:34:47.618Z,54.50
2023-05-08T03:37:18.393Z,54.60
2023-05-08T03:39:49.301Z,54.70
2023-05-08T03:42:23.334Z,54.80
2023-05-08T03:44:56.892Z,55.00
2023-05-08T03:47:28.248Z,55.10
2023-05-08T03:49:58.791Z,55.10
2023-05-08T03:52:29.433Z,55.20
2023-05-08T03:54:59.697Z,55.40
2023-05-08T03:57:37.920Z,55.40
2023-05-08T04:00:27.692Z,55.50
2023-05-08T04:03:25.095Z,55.60
2023-05-08T04:06:05.430Z,55.60
2023-05-08T04:08:45.162Z,55.80
2023-05-08T04:11:28.565Z,55.80
2023-05-08T04:14:05.609Z,55.80
2023-05-08T04:16:40.638Z,55.80
2023-05-08T04:19:16.002Z,55.80
2023-05-08T04:21:46.820Z,55.90
2023-05-08T04:24:19.675Z,55.90
2023-05-08T04:26:50.301Z,55.90
2023-05-08T04:29:21.033Z,56.00
2023-05-08T04:31:52.652Z,55.90
2023-05-08T04:34:24.119Z,55.90
2023-05-08T04:36:55.109Z,56.00
2023-05-08T04:39:25.668Z,56.00
2023-05-08T04:41:57.397Z,56.00
2023-05-08T04:44:28.364Z,56.10
2023-05-08T04:46:58.826Z,55.90
2023-05-08T04:49:29.067Z,55.90
2023-05-08T04:51:59.377Z,55.90
2023-05-08T04:54:29.740Z,55.90
2023-05-08T04:57:00.229Z,56.40
2023-05-08T04:59:32.004Z,56.60
2023-05-08T05:02:04.867Z,56.30
2023-05-08T05:04:35.460Z,56.30
2023-05-08T05:07:08.726Z,56.40
2023-05-08T05:09:40.831Z,56.20
2023-05-08T05:12:11.241Z,56.40
2023-05-08T05:14:41.480Z,56.30
2023-05-08T05:17:11.685Z,56.10
2023-05-08T05:19:42.324Z,56.30
2023-05-08T05:22:12.595Z,56.20
2023-05-08T05:24:43.318Z,56.10
2023-05-08T05:27:13.454Z,56.20
2023-05-08T05:29:43.744Z,56.10
2023-05-08T05:32:13.931Z,56.10
2023-05-08T05:34:44.093Z,56.20
2023-05-08T05:37:14.243Z,56.10
2023-05-08T05:39:44.568Z,56.10
2023-05-08T05:42:14.906Z,56.20
2023-05-08T05:44:45.183Z,56.00
2023-05-08T05:47:15.972Z,56.10
2023-05-08T05:49:49.009Z,56.30
2023-05-08T05:52:19.254Z,56.30
2023-05-08T05:54:49.699Z,56.40
2023-05-08T05:57:19.899Z,56.50
2023-05-08T05:59:50.410Z,56.50
2023-05-08T06:02:22.034Z,56.60
2023-05-08T06:04:54.458Z,56.70
2023-05-08T06:07:24.600Z,56.60
2023-05-08T06:09:54.905Z,56.60
2023-05-08T06:12:25.212Z,56.70
2023-05-08T06:14:55.733Z,56.70
2023-05-08T06:17:26.088Z,56.60
2023-05-08T06:19:58.354Z,56.60
2023-05-08T06:22:28.599Z,56.60
2023-05-08T06:24:59.117Z,56.70
2023-05-08T06:27:29.801Z,56.70
2023-05-08T06:30:00.904Z,56.70
2023-05-08T06:32:31.136Z,56.70
2023-05-08T06:35:01.342Z,56.70
2023-05-08T06:37:31.537Z,56.40
2023-05-08T06:40:11.647Z,57.00
2023-05-08T06:42:43.691Z,56.60
2023-05-08T06:45:14.461Z,56.50
2023-05-08T06:47:44.886Z,56.60
2023-05-08T06:50:15.452Z,56.80
2023-05-08T06:52:45.623Z,56.80
2023-05-08T06:55:16.197Z,56.80
2023-05-08T06:57:46.434Z,56.80
2023-05-08T07:00:17.444Z,56.90
2023-05-08T07:02:47.806Z,56.80
2023-05-08T07:05:18.432Z,56.70
2023-05-08T07:07:49.106Z,56.80
2023-05-08T07:10:21.877Z,56.80
2023-05-08T07:12:52.565Z,56.80
2023-05-08T07:15:26.496Z,56.80
2023-05-08T07:17:57.461Z,56.80
2023-05-08T07:20:27.836Z,56.70
2023-05-08T07:22:58.137Z,56.80
2023-05-08T07:25:28.524Z,56.80
2023-05-08T07:28:01.006Z,56.70
2023-05-08T07:30:33.114Z,56.80
2023-05-08T07:33:03.559Z,56.90
2023-05-08T07:35:33.910Z,56.90
2023-05-08T07:38:04.234Z,56.90
2023-05-08T07:40:34.618Z,56.90
2023-05-08T07:43:05.470Z,56.90
2023-05-08T07:45:36.605Z,57.50
2023-05-08T07:48:07.193Z,56.90
2023-05-08T07:50:38.235Z,57.00
2023-05-08T07:53:08.594Z,57.10
2023-05-08T07:55:39.747Z,57.10
2023-05-08T07:58:10.563Z,57.10
2023-05-08T08:00:42.606Z,57.00
2023-05-08T08:03:12.863Z,57.20
2023-05-08T08:05:43.760Z,57.10
2023-05-08T08:08:14.308Z,57.10
2023-05-08T08:10:44.568Z,57.10
2023-05-08T08:13:14.843Z,57.10
2023-05-08T08:15:45.424Z,57.10
2023-05-08T08:18:15.738Z,56.90
2023-05-08T08:20:46.087Z,56.80
2023-05-08T08:23:16.258Z,56.70
2023-05-08T08:25:46.517Z,56.60
2023-05-08T08:28:16.773Z,56.70
2023-05-08T08:30:47.329Z,56.60
2023-05-08T08:33:19.067Z,56.70
2023-05-08T08:35:49.781Z,56.70
2023-05-08T08:38:28.484Z,56.70
2023-05-08T08:40:58.869Z,56.70
2023-05-08T08:43:30.245Z,56.60
2023-05-08T08:46:03.897Z,56.80
2023-05-08T08:48:34.598Z,56.70
2023-05-08T08:51:06.830Z,56.70
2023-05-08T08:53:45.455Z,56.70
2023-05-08T08:56:17.907Z,56.60
2023-05-08T08:58:57.157Z,56.80
2023-05-08T09:01:28.458Z,56.70
2023-05-08T09:04:02.066Z,56.70
2023-05-08T09:06:32.682Z,56.70
2023-05-08T09:09:03.917Z,56.50
2023-05-08T09:11:34.846Z,56.50
2023-05-08T09:14:05.494Z,56.50
2023-05-08T09:16:36.522Z,56.40
2023-05-08T09:19:08.080Z,56.50
2023-05-08T09:21:39.869Z,56.60
2023-05-08T09:24:10.659Z,56.70
2023-05-08T09:26:42.671Z,56.80
2023-05-08T09:29:24.159Z,56.70
2023-05-08T09:31:56.432Z,56.70
2023-05-08T09:34:31.268Z,56.80
2023-05-08T09:37:16.057Z,57.00
2023-05-08T09:39:48.929Z,56.90
2023-05-08T09:42:19.295Z,57.10
2023-05-08T09:44:53.940Z,57.00
2023-05-08T09:47:26.165Z,57.10
2023-05-08T09:50:25.547Z,57.10
2023-05-08T09:52:55.921Z,57.30
2023-05-08T09:55:26.475Z,57.20
2023-05-08T09:58:01.826Z,57.20
2023-05-08T10:00:32.622Z,57.20
2023-05-08T10:03:04.618Z,57.40
2023-05-08T10:05:38.037Z,57.60
2023-05-08T10:08:24.559Z,57.40
2023-05-08T10:10:55.002Z,57.70
2023-05-08T10:13:25.367Z,57.50
2023-05-08T10:15:58.945Z,57.60
2023-05-08T10:18:32.171Z,57.70
2023-05-08T10:21:05.127Z,57.60
2023-05-08T10:23:37.673Z,57.90
2023-05-08T10:26:32.872Z,57.70
2023-05-08T10:29:10.649Z,57.80
2023-05-08T10:31:45.660Z,57.80
2023-05-08T10:34:24.909Z,57.80
2023-05-08T10:36:55.226Z,57.90
2023-05-08T10:39:26.012Z,57.90
2023-05-08T10:41:56.530Z,58.10
2023-05-08T10:44:29.174Z,58.00
2023-05-08T10:47:14.281Z,57.80
2023-05-08T10:49:56.740Z,58.10
2023-05-08T10:52:33.160Z,57.80
2023-05-08T10:55:07.835Z,58.20
2023-05-08T10:57:38.907Z,58.30
2023-05-08T11:00:10.265Z,58.00
2023-05-08T11:02:40.965Z,58.20
2023-05-08T11:05:22.050Z,58.00
2023-05-08T11:07:58.978Z,58.80
2023-05-08T11:10:38.799Z,58.40
2023-05-08T11:13:11.007Z,58.40
2023-05-08T11:15:42.899Z,58.40
2023-05-08T11:18:13.529Z,58.40
2023-05-08T11:21:07.687Z,59.10
2023-05-08T11:23:40.584Z,58.50
2023-05-08T11:26:20.120Z,58.60
2023-05-08T11:28:56.531Z,58.50
2023-05-08T11:31:46.723Z,58.60
2023-05-08T11:34:44.448Z,58.60
2023-05-08T11:37:25.636Z,58.40
2023-05-08T11:39:56.724Z,58.50
2023-05-08T11:42:29.890Z,59.10
2023-05-08T11:45:10.744Z,58.40
2023-05-08T11:47:48.009Z,58.40
2023-05-08T11:50:18.650Z,58.30
2023-05-08T11:52:49.171Z,58.20
2023-05-08T11:55:21.253Z,58.40
2023-05-08T11:57:51.455Z,58.20
2023-05-08T12:00:24.424Z,58.30
2023-05-08T12:02:54.866Z,58.40
2023-05-08T12:05:30.841Z,58.40
2023-05-08T12:08:02.566Z,58.50
2023-05-08T12:10:33.134Z,58.60
2023-05-08T12:13:03.554Z,58.60
2023-05-08T12:15:35.625Z,58.60
2023-05-08T12:18:06.099Z,58.60
2023-05-08T12:20:36.395Z,58.70
2023-05-08T12:23:07.286Z,58.50
2023-05-08T12:25:38.467Z,58.50
2023-05-08T12:28:12.858Z,58.60
2023-05-08T12:30:43.338Z,58.60
2023-05-08T12:33:14.262Z,58.50
2023-05-08T12:35:44.878Z,58.70
2023-05-08T12:38:15.553Z,58.90
2023-05-08T12:40:48.073Z,59.10
2023-05-08T12:43:18.372Z,59.30
2023-05-08T12:45:48.699Z,59.40
2023-05-08T12:48:18.996Z,59.50
2023-05-08T12:50:49.470Z,59.50
2023-05-08T12:53:21.604Z,59.50
2023-05-08T12:55:59.650Z,59.60
2023-05-08T12:58:32.653Z,59.50
2023-05-08T13:01:15.882Z,59.50
2023-05-08T13:03:50.766Z,59.40
2023-05-08T13:06:26.441Z,59.40
2023-05-08T13:08:57.854Z,59.40
2023-05-08T13:11:36.068Z,59.40
2023-05-08T13:14:06.445Z,59.30
2023-05-08T13:16:45.973Z,59.30
2023-05-08T13:19:20.844Z,59.30
2023-05-08T13:21:51.186Z,59.30
2023-05-08T13:24:21.634Z,59.30
2023-05-08T13:26:51.944Z,59.40
2023-05-08T13:29:23.797Z,59.20
2023-05-08T13:31:54.039Z,59.20
2023-05-08T13:34:24.359Z,59.20
2023-05-08T13:36:54.682Z,59.10
2023-05-08T13:39:24.907Z,59.10
2023-05-08T13:41:55.148Z,59.00
2023-05-08T13:44:25.591Z,59.00
2023-05-08T13:46:55.862Z,58.90
2023-05-08T13:49:29.344Z,58.90
2023-05-08T13:51:59.580Z,58.90
2023-05-08T13:54:30.106Z,58.90
2023-05-08T13:57:00.495Z,58.70
2023-05-08T13:59:32.871Z,58.80
2023-05-08T14:02:03.938Z,58.70
2023-05-08T14:04:34.480Z,58.70
2023-05-08T14:07:04.791Z,58.70
2023-05-08T14:09:35.560Z,58.70
2023-05-08T14:12:06.058Z,59.30
2023-05-08T14:14:36.366Z,58.60
2023-05-08T14:17:07.916Z,58.60
2023-05-08T14:19:38.380Z,58.60
2023-05-08T14:22:08.720Z,58.60
2023-05-08T14:24:39.136Z,58.60
2023-05-08T14:27:09.438Z,58.60
2023-05-08T14:29:39.759Z,58.60
2023-05-08T14:32:12.621Z,58.60
2023-05-08T14:34:43.016Z,58.60
2023-05-08T14:37:14.755Z,58.50
2023-05-08T14:39:45.519Z,58.50
2023-05-08T14:42:22.748Z,58.50
2023-05-08T14:44:54.127Z,58.60
2023-05-08T14:47:25.115Z,58.50
2023-05-08T14:49:55.658Z,58.50
2023-05-08T14:52:25.970Z,58.50
2023-05-08T14:54:56.475Z,58.50
2023-05-08T14:57:27.244Z,58.50
2023-05-08T14:59:58.475Z,58.50
2023-05-08T15:02:28.816Z,58.60
2023-05-08T15:04:59.182Z,58.60
2023-05-08T15:07:29.446Z,58.50
2023-05-08T15:09:59.718Z,58.50
2023-05-08T15:12:30.088Z,58.60
2023-05-08T15:15:02.595Z,58.60
2023-05-08T15:17:38.001Z,58.60
2023-05-08T15:20:08.972Z,58.60
2023-05-08T15:22:39.455Z,58.60
2023-05-08T15:25:10.272Z,58.70
2023-05-08T15:27:40.846Z,58.60
2023-05-08T15:30:11.992Z,58.60
2023-05-08T15:32:42.375Z,58.60
2023-05-08T15:35:12.964Z,58.70
2023-05-08T15:37:43.780Z,58.70
2023-05-08T15:40:14.610Z,58.60
2023-05-08T15:42:44.861Z,58.70
2023-05-08T15:45:15.517Z,58.60
2023-05-08T15:47:45.939Z,58.70
2023-05-08T15:50:16.679Z,58.70
2023-05-08T15:52:46.921Z,58.70
2023-05-08T15:55:17.456Z,58.70
2023-05-08T15:57:47.903Z,58.70
2023-05-08T16:00:18.794Z,58.70
2023-05-08T16:02:49.968Z,58.80
2023-05-08T16:05:20.628Z,58.70
2023-05-08T16:07:53.234Z,58.80
2023-05-08T16:10:23.996Z,58.80
2023-05-08T16:12:54.339Z,58.80
2023-05-08T16:15:24.817Z,58.80
2023-05-08T16:17:55.487Z,58.80
2023-05-08T16:20:26.077Z,58.80
2023-05-08T16:22:59.888Z,58.80
2023-05-08T16:25:30.284Z,58.80
2023-05-08T16:28:01.161Z,58.80
2023-05-08T16:30:31.581Z,58.80
2023-05-08T16:33:02.035Z,58.80
2023-05-08T16:35:34.590Z,58.90
2023-05-08T16:38:06.516Z,58.80
2023-05-08T16:40:37.543Z,58.90
2023-05-08T16:43:10.117Z,58.90
2023-05-08T16:45:40.437Z,58.90
2023-05-08T16:48:10.799Z,58.90
2023-05-08T16:50:41.123Z,58.90
2023-05-08T16:53:11.971Z,59.00
2023-05-08T16:55:42.945Z,59.00
2023-05-08T16:58:13.335Z,59.00
2023-05-08T17:00:43.569Z,58.90
2023-05-08T17:03:14.015Z,59.00
2023-05-08T17:05:44.269Z,58.90
2023-05-08T17:08:14.925Z,59.00
2023-05-08T17:10:45.226Z,59.00
2023-05-08T17:13:15.461Z,59.00
2023-05-08T17:15:46.203Z,59.00
2023-05-08T17:18:24.343Z,59.10
2023-05-08T17:20:58.825Z,59.10
2023-05-08T17:23:30.254Z,59.10
2023-05-08T17:26:01.459Z,59.10
2023-05-08T17:28:34.834Z,59.10
2023-05-08T17:31:05.258Z,59.20
2023-05-08T17:33:35.612Z,59.10
2023-05-08T17:36:07.083Z,59.20
2023-05-08T17:38:39.975Z,59.20
2023-05-08T17:41:12.410Z,59.20
2023-05-08T17:43:44.440Z,59.30
2023-05-08T17:46:14.998Z,59.30
2023-05-08T17:48:45.388Z,59.20
2023-05-08T17:51:16.306Z,59.30
2023-05-08T17:53:46.724Z,59.20
2023-05-08T17:56:21.941Z,59.20
2023-05-08T17:58:56.139Z,59.20
2023-05-08T18:01:28.506Z,59.30
2023-05-08T18:03:58.867Z,59.30
2023-05-08T18:06:33.210Z,59.20
2023-05-08T18:09:04.855Z,59.30
2023-05-08T18:11:36.333Z,59.30
2023-05-08T18:14:08.058Z,59.30
2023-05-08T18:16:41.724Z,59.30
2023-05-08T18:19:14.750Z,59.30
2023-05-08T18:21:45.201Z,59.30
2023-05-08T18:24:15.742Z,59.40
2023-05-08T18:26:50.608Z,59.30
2023-05-08T18:29:23.808Z,59.30
2023-05-08T18:31:56.650Z,59.40
2023-05-08T18:34:27.944Z,59.40
2023-05-08T18:36:58.267Z,59.40
2023-05-08T18:39:28.544Z,59.40
2023-05-08T18:41:58.856Z,59.40
2023-05-08T18:44:29.208Z,59.50
2023-05-08T18:46:59.644Z,59.40
2023-05-08T18:49:30.234Z,59.40
2023-05-08T18:52:00.627Z,59.40
2023-05-08T18:54:31.422Z,59.50
2023-05-08T18:57:03.120Z,59.50
2023-05-08T18:59:33.701Z,59.40
2023-05-08T19:02:03.992Z,59.40
2023-05-08T19:04:34.273Z,59.50
2023-05-08T19:07:04.507Z,59.50
2023-05-08T19:09:36.496Z,59.50
2023-05-08T19:12:06.822Z,59.50
2023-05-08T19:14:38.429Z,59.50
2023-05-08T19:17:08.774Z,59.50
2023-05-08T19:19:39.054Z,59.60
2023-05-08T19:22:12.429Z,59.60
2023-05-08T19:24:42.678Z,59.60
2023-05-08T19:27:13.961Z,59.60
2023-05-08T19:29:44.168Z,59.60
2023-05-08T19:32:16.272Z,59.60
2023-05-08T19:34:46.481Z,59.60
2023-05-08T19:37:16.781Z,59.60
2023-05-08T19:39:47.133Z,59.60
2023-05-08T19:42:20.090Z,59.60
2023-05-08T19:44:51.000Z,59.70
2023-05-08T19:47:21.394Z,59.70
2023-05-08T19:49:52.927Z,59.70
2023-05-08T19:52:23.384Z,59.70
2023-05-08T19:54:53.679Z,59.70
2023-05-08T19:57:23.866Z,59.70
2023-05-08T19:59:54.127Z,59.80
2023-05-08T20:02:24.862Z,59.80
2023-05-08T20:05:21.180Z,59.80
2023-05-08T20:07:45.602Z,59.80
2023-05-08T20:10:16.254Z,59.80
2023-05-08T20:12:46.805Z,59.80
2023-05-08T20:15:17.148Z,59.80
2023-05-08T20:17:47.500Z,59.80
2023-05-08T20:20:17.851Z,59.80
2023-05-08T20:22:48.121Z,59.80
2023-05-08T20:25:18.577Z,59.80
2023-05-08T20:27:48.777Z,59.90
2023-05-08T20:30:20.092Z,59.80
2023-05-08T20:32:51.434Z,59.80
2023-05-08T20:35:21.965Z,59.90
2023-05-08T20:37:52.254Z,59.80
2023-05-08T20:40:22.886Z,59.90
2023-05-08T20:42:53.121Z,59.90
2023-05-08T20:45:23.466Z,59.90
2023-05-08T20:47:53.729Z,59.90
2023-05-08T20:50:24.022Z,59.90
2023-05-08T20:52:54.345Z,60.00
2023-05-08T20:55:24.722Z,60.00
2023-05-08T20:57:54.914Z,60.00
2023-05-08T21:00:25.176Z,60.00
2023-05-08T21:02:55.409Z,60.00
2023-05-08T21:05:25.658Z,60.00
2023-05-08T21:08:04.470Z,60.00
2023-05-08T21:10:35.012Z,60.10
2023-05-08T21:13:05.872Z,60.00
2023-05-08T21:15:36.684Z,60.10
2023-05-08T21:18:07.092Z,60.10
2023-05-08T21:20:37.269Z,60.10
2023-05-08T21:23:07.616Z,60.10
2023-05-08T21:25:37.944Z,60.10
2023-05-08T21:28:08.275Z,60.10
2023-05-08T21:30:38.533Z,60.10
2023-05-08T21:33:08.847Z,60.20
2023-05-08T21:35:39.460Z,60.20
2023-05-08T21:38:10.305Z,60.30
2023-05-08T21:40:40.940Z,60.50
2023-05-08T21:43:11.226Z,60.70
2023-05-08T21:45:41.491Z,61.10
2023-05-08T21:48:11.736Z,61.10
2023-05-08T21:50:41.972Z,61.10
2023-05-08T21:53:12.539Z,61.10
2023-05-08T21:55:42.862Z,60.90
2023-05-08T21:58:13.134Z,60.80
2023-05-08T22:00:43.429Z,60.70
2023-05-08T22:03:13.888Z,60.90
2023-05-08T22:05:44.263Z,60.80
2023-05-08T22:08:17.347Z,61.00
2023-05-08T22:10:47.994Z,60.80
2023-05-08T22:13:18.228Z,60.70
2023-05-08T22:15:48.586Z,60.60
2023-05-08T22:18:18.951Z,60.70
2023-05-08T22:20:49.258Z,60.70
2023-05-08T22:23:19.477Z,60.60
2023-05-08T22:25:49.871Z,60.50
2023-05-08T22:28:20.118Z,60.60
2023-05-08T22:30:50.402Z,60.60
2023-05-08T22:33:20.857Z,60.40
2023-05-08T22:35:51.089Z,60.40
2023-05-08T22:38:33.760Z,60.60
2023-05-08T22:41:04.859Z,60.60
2023-05-08T22:43:35.575Z,60.50
2023-05-08T22:46:06.071Z,60.70
2023-05-08T22:48:38.042Z,60.70
2023-05-08T22:51:10.593Z,60.60
2023-05-08T22:53:41.065Z,60.70
2023-05-08T22:56:11.781Z,60.90
2023-05-08T22:58:42.797Z,60.60
2023-05-08T23:01:14.706Z,60.60
2023-05-08T23:03:45.281Z,60.60
2023-05-08T23:06:15.492Z,60.80
2023-05-08T23:08:46.409Z,60.80
2023-05-08T23:11:18.262Z,60.80
2023-05-08T23:13:48.765Z,60.80
2023-05-08T23:16:19.009Z,61.00
2023-05-08T23:18:49.545Z,60.90
2023-05-08T23:21:19.790Z,60.80
2023-05-08T23:23:50.442Z,60.80
2023-05-08T23:26:21.339Z,60.80
2023-05-08T23:28:51.685Z,60.80
2023-05-08T23:31:22.062Z,60.70
2023-05-08T23:33:52.723Z,60.80
2023-05-08T23:36:23.596Z,60.90
2023-05-08T23:38:53.851Z,60.70
2023-05-08T23:41:24.045Z,60.80
2023-05-08T23:43:54.346Z,60.90
2023-05-08T23:46:24.637Z,60.70
2023-05-08T23:48:54.928Z,60.70
2023-05-08T23:51:25.127Z,60.70
2023-05-08T23:53:55.388Z,60.90
2023-05-08T23:56:26.429Z,60.90
2023-05-08T23:58:56.650Z,60.70
